createdAt,value
2023-05-04T00:00:33.080Z,3.20
2023-05-04T00:03:44.514Z,2.85
2023-05-04T00:06:48.449Z,2.58
2023-05-04T00:09:54.700Z,2.88
2023-05-04T00:12:58.656Z,2.53
2023-05-04T00:16:03.151Z,2.72
2023-05-04T00:19:07.103Z,3.50
2023-05-04T00:22:18.565Z,2.78
2023-05-04T00:25:23.035Z,3.10
2023-05-04T00:28:27.673Z,3.88
2023-05-04T00:31:31.879Z,3.20
2023-05-04T00:34:42.520Z,4.20
2023-05-04T00:37:49.399Z,3.58
2023-05-04T00:40:53.584Z,3.30
2023-05-04T00:44:00.519Z,3.15
2023-05-04T00:47:04.798Z,2.83
2023-05-04T00:50:10.260Z,3.95
2023-05-04T00:56:55.419Z,3.15
2023-05-04T01:00:04.275Z,2.90
2023-05-04T01:03:11.315Z,3.50
2023-05-04T01:09:48.275Z,3.33
2023-05-04T01:13:08.478Z,4.03
2023-05-04T01:16:13.102Z,3.20
2023-05-04T01:19:17.679Z,4.45
2023-05-04T01:22:22.823Z,4.65
2023-05-04T01:25:52.910Z,3.25
2023-05-04T01:29:19.969Z,3.40
2023-05-04T01:32:28.786Z,3.05
2023-05-04T01:35:35.988Z,3.60
2023-05-04T01:38:40.411Z,3.65
2023-05-04T01:41:44.978Z,3.05
2023-05-04T01:44:49.885Z,3.15
2023-05-04T01:48:00.585Z,4.05
2023-05-04T01:51:05.985Z,3.35
2023-05-04T01:57:16.863Z,4.05
2023-05-04T02:00:20.972Z,3.97
2023-05-04T02:03:25.778Z,3.83
2023-05-04T02:06:30.701Z,2.92
2023-05-04T02:09:37.929Z,3.72
2023-05-04T02:12:43.928Z,3.50
2023-05-04T02:15:51.049Z,3.65
2023-05-04T02:18:57.763Z,3.22
2023-05-04T02:22:30.968Z,3.80
2023-05-04T02:25:35.827Z,3.42
2023-05-04T02:28:46.517Z,3.20
2023-05-04T02:31:50.846Z,3.40
2023-05-04T02:35:01.034Z,3.40
2023-05-04T02:38:07.886Z,3.33
2023-05-04T02:41:12.472Z,4.00
2023-05-04T02:44:19.010Z,4.45
2023-05-04T02:47:23.834Z,3.40
2023-05-04T02:50:28.095Z,3.25
2023-05-04T02:53:32.765Z,3.28
2023-05-04T02:56:38.831Z,3.17
2023-05-04T02:59:43.053Z,4.13
2023-05-04T03:02:47.222Z,3.28
2023-05-04T03:05:54.699Z,3.40
2023-05-04T03:08:59.632Z,2.80
2023-05-04T03:12:05.258Z,2.90
2023-05-04T03:15:17.687Z,3.10
2023-05-04T03:35:44.639Z,2.97
2023-05-04T03:42:18.447Z,3.00
2023-05-04T03:45:29.427Z,3.15
2023-05-04T03:48:40.295Z,3.60
2023-05-04T03:51:50.291Z,4.18
2023-05-04T03:55:09.085Z,3.40
2023-05-04T03:58:17.397Z,3.45
2023-05-04T04:01:37.793Z,3.65
2023-05-04T04:10:35.923Z,3.80
2023-05-04T04:15:54.810Z,3.05
2023-05-04T04:18:54.510Z,3.20
2023-05-04T04:22:07.239Z,3.13
2023-05-04T04:25:14.493Z,3.65
2023-05-04T04:28:55.375Z,3.15
2023-05-04T04:31:50.406Z,3.90
2023-05-04T04:34:57.562Z,3.17
2023-05-04T04:38:04.407Z,3.05
2023-05-04T04:41:08.977Z,3.30
2023-05-04T04:44:17.693Z,4.10
2023-05-04T04:47:28.514Z,3.72
2023-05-04T04:50:33.241Z,2.97
2023-05-04T04:53:37.960Z,3.80
2023-05-04T04:56:47.124Z,7.97
2023-05-04T04:59:57.750Z,2.90
2023-05-04T05:03:02.297Z,3.58
2023-05-04T05:06:09.993Z,2.88
2023-05-04T05:09:14.409Z,5.03
2023-05-04T05:12:20.707Z,3.38
2023-05-04T05:15:25.085Z,3.33
2023-05-04T05:18:30.239Z,4.90
2023-05-04T05:21:48.814Z,2.97
2023-05-04T05:24:53.619Z,3.65
2023-05-04T05:27:57.857Z,3.13
2023-05-04T05:55:07.714Z,3.67
2023-05-04T05:58:12.413Z,3.05
2023-05-04T06:01:17.311Z,3.03
2023-05-04T06:04:21.631Z,3.42
2023-05-04T06:07:31.592Z,2.97
2023-05-04T06:10:37.962Z,2.90
2023-05-04T06:13:44.195Z,3.25
2023-05-04T06:16:50.741Z,3.35
2023-05-04T06:20:00.997Z,3.20
2023-05-04T06:23:08.249Z,2.92
2023-05-04T06:26:12.910Z,3.40
2023-05-04T06:29:20.645Z,4.30
2023-05-04T06:32:27.486Z,3.28
2023-05-04T06:35:34.356Z,4.38
2023-05-04T06:38:39.334Z,3.25
2023-05-04T06:41:49.248Z,3.30
2023-05-04T06:44:59.593Z,4.13
2023-05-04T06:48:06.548Z,4.15
2023-05-04T06:51:14.116Z,5.30
2023-05-04T06:54:26.522Z,4.57
2023-05-04T06:58:17.443Z,5.25
2023-05-04T07:01:25.977Z,5.80
2023-05-04T07:04:30.021Z,6.18
2023-05-04T07:07:34.933Z,6.72
2023-05-04T07:10:52.872Z,8.73
2023-05-04T07:13:57.602Z,5.00
2023-05-04T07:17:05.679Z,3.20
2023-05-04T07:20:25.801Z,5.68
2023-05-04T07:23:31.987Z,6.57
2023-05-04T07:26:36.488Z,5.15
2023-05-04T07:33:37.365Z,15.18
2023-05-04T07:36:43.921Z,4.93
2023-05-04T07:40:27.927Z,5.07
2023-05-04T07:44:21.248Z,4.40
2023-05-04T07:47:25.674Z,22.15
2023-05-04T07:50:32.280Z,5.57
2023-05-04T07:53:36.978Z,6.07
2023-05-04T07:56:41.841Z,5.82
2023-05-04T07:59:46.313Z,4.30
2023-05-04T08:02:51.044Z,6.45
2023-05-04T08:05:55.750Z,4.43
2023-05-04T08:09:00.026Z,4.10
2023-05-04T08:12:05.464Z,3.30
2023-05-04T08:15:11.204Z,5.40
2023-05-04T08:18:20.958Z,5.43
2023-05-04T08:21:28.139Z,5.10
2023-05-04T08:24:37.840Z,5.28
2023-05-04T08:27:42.100Z,9.10
2023-05-04T08:30:46.338Z,4.28
2023-05-04T08:33:50.813Z,3.88
2023-05-04T08:36:55.046Z,4.10
2023-05-04T08:43:43.701Z,4.38
2023-05-04T08:47:23.548Z,4.13
2023-05-04T08:50:35.412Z,3.55
2023-05-04T08:53:55.576Z,4.60
2023-05-04T08:57:05.173Z,3.58
2023-05-04T09:00:15.207Z,5.10
2023-05-04T09:03:22.597Z,7.43
2023-05-04T09:06:31.874Z,7.82
2023-05-04T09:09:36.283Z,8.00
2023-05-04T09:12:46.378Z,8.20
2023-05-04T09:16:00.253Z,8.55
2023-05-04T09:19:30.599Z,7.35
2023-05-04T09:22:40.740Z,8.63
2023-05-04T09:26:01.662Z,10.63
2023-05-04T09:29:20.345Z,10.77
2023-05-04T09:32:31.467Z,12.40
2023-05-04T09:35:36.369Z,8.65
2023-05-04T09:38:46.428Z,8.75
2023-05-04T09:41:53.567Z,8.02
2023-05-04T09:45:52.806Z,8.65
2023-05-04T09:49:01.219Z,9.20
2023-05-04T09:52:07.869Z,11.10
2023-05-04T09:55:17.466Z,10.13
2023-05-04T09:58:31.427Z,9.05
2023-05-04T10:01:35.510Z,9.48
2023-05-04T10:04:44.133Z,8.43
2023-05-04T10:07:48.687Z,8.93
2023-05-04T10:10:58.710Z,9.18
2023-05-04T10:14:03.580Z,10.75
2023-05-04T10:17:25.464Z,7.38
2023-05-04T10:20:51.687Z,6.32
2023-05-04T10:24:24.292Z,4.90
2023-05-04T10:27:49.703Z,4.20
2023-05-04T10:31:00.853Z,5.25
2023-05-04T10:34:07.948Z,4.93
2023-05-04T10:37:19.485Z,5.22
2023-05-04T10:40:41.713Z,4.07
2023-05-04T10:43:54.406Z,3.88
2023-05-04T10:47:23.348Z,3.30
2023-05-04T10:50:33.141Z,4.50
2023-05-04T10:53:38.104Z,7.70
2023-05-04T10:56:42.630Z,9.25
2023-05-04T11:00:00.089Z,13.20
2023-05-04T11:03:08.468Z,14.95
2023-05-04T11:06:23.964Z,13.30
2023-05-04T11:09:38.646Z,13.77
2023-05-04T11:12:44.456Z,14.55
2023-05-04T11:15:51.620Z,15.70
2023-05-04T11:18:57.022Z,16.13
2023-05-04T11:25:09.438Z,14.90
2023-05-04T11:28:14.820Z,13.43
2023-05-04T11:31:22.993Z,12.35
2023-05-04T11:34:27.566Z,11.32
2023-05-04T11:37:33.069Z,12.70
2023-05-04T11:43:47.269Z,14.55
2023-05-04T11:46:52.485Z,16.30
2023-05-04T11:49:57.280Z,16.20
2023-05-04T11:53:13.084Z,17.80
2023-05-04T11:56:23.157Z,16.88
2023-05-04T11:59:27.663Z,18.83
2023-05-04T12:02:32.382Z,17.23
2023-05-04T12:05:38.435Z,19.30
2023-05-04T12:08:44.653Z,18.95
2023-05-04T12:11:57.342Z,19.05
2023-05-04T12:15:01.664Z,19.30
2023-05-04T12:18:09.222Z,20.17
2023-05-04T12:21:14.131Z,17.85
2023-05-04T12:24:31.984Z,17.35
2023-05-04T12:27:36.781Z,17.70
2023-05-04T12:30:41.491Z,107.93
2023-05-04T12:33:48.966Z,58.67
2023-05-04T12:36:53.652Z,33.80
2023-05-04T12:39:58.371Z,27.47
2023-05-04T12:43:04.219Z,30.10
2023-05-04T12:46:09.439Z,31.58
2023-05-04T12:49:15.514Z,29.17
2023-05-04T12:52:20.199Z,27.52
2023-05-04T12:55:25.532Z,20.63
2023-05-04T12:58:30.738Z,11.93
2023-05-04T13:01:35.532Z,14.40
2023-05-04T13:04:41.596Z,12.73
2023-05-04T13:07:46.226Z,7.85
2023-05-04T13:10:51.751Z,7.63
2023-05-04T13:13:57.460Z,9.38
2023-05-04T13:17:01.920Z,7.03
2023-05-04T13:20:12.494Z,6.00
2023-05-04T13:23:17.444Z,5.32
2023-05-04T13:26:24.502Z,5.60
2023-05-04T13:29:28.840Z,4.70
2023-05-04T13:32:33.946Z,4.80
2023-05-04T13:35:38.625Z,5.55
2023-05-04T13:38:43.143Z,5.60
2023-05-04T13:41:47.700Z,5.45
2023-05-04T13:44:52.320Z,5.80
2023-05-04T13:47:59.319Z,6.03
2023-05-04T13:51:04.961Z,5.60
2023-05-04T13:57:13.775Z,6.00
2023-05-04T14:00:18.994Z,5.90
2023-05-04T14:03:30.312Z,6.82
2023-05-04T14:06:35.121Z,6.22
2023-05-04T14:09:40.137Z,6.83
2023-05-04T14:12:44.551Z,6.60
2023-05-04T14:15:49.648Z,7.35
2023-05-04T14:18:56.159Z,7.32
2023-05-04T14:22:00.730Z,9.35
2023-05-04T14:25:06.833Z,10.68
2023-05-04T14:28:11.567Z,8.13
2023-05-04T14:31:17.671Z,8.77
2023-05-04T14:34:22.850Z,8.68
2023-05-04T14:37:27.530Z,9.95
2023-05-04T14:40:35.272Z,9.02
2023-05-04T14:43:39.805Z,9.65
2023-05-04T14:46:44.272Z,10.55
2023-05-04T14:49:49.043Z,15.80
2023-05-04T14:52:53.808Z,20.53
2023-05-04T14:56:01.959Z,32.33
2023-05-04T15:02:11.523Z,37.33
2023-05-04T15:05:17.286Z,35.95
2023-05-04T15:08:23.527Z,46.03
2023-05-04T15:11:28.139Z,52.80
2023-05-04T15:14:32.512Z,50.22
2023-05-04T15:17:37.084Z,43.63
2023-05-04T15:20:41.844Z,36.20
2023-05-04T15:23:51.362Z,35.40
2023-05-04T15:27:06.399Z,32.63
2023-05-04T15:30:17.175Z,31.20
2023-05-04T15:33:29.477Z,31.75
2023-05-04T15:36:47.730Z,32.35
2023-05-04T15:40:03.719Z,32.45
2023-05-04T15:43:18.684Z,30.23
2023-05-04T15:46:33.498Z,30.83
2023-05-04T15:49:44.145Z,30.67
2023-05-04T15:52:52.230Z,31.38
2023-05-04T15:56:26.952Z,32.03
2023-05-04T15:59:41.806Z,31.90
2023-05-04T16:03:07.159Z,31.48
2023-05-04T16:09:46.816Z,32.20
2023-05-04T16:13:00.102Z,32.22
2023-05-04T16:19:52.179Z,31.02
2023-05-04T16:23:08.556Z,31.08
2023-05-04T16:26:22.684Z,32.00
2023-05-04T16:29:32.739Z,33.00
2023-05-04T16:32:45.041Z,32.20
2023-05-04T16:43:01.352Z,31.63
2023-05-04T16:46:13.350Z,31.77
2023-05-04T16:49:28.792Z,31.23
2023-05-04T16:52:48.549Z,30.92
2023-05-04T16:56:11.638Z,30.20
2023-05-04T16:59:19.989Z,30.52
2023-05-04T17:02:34.651Z,32.50
2023-05-04T17:05:48.464Z,32.30
2023-05-04T17:09:07.629Z,32.95
2023-05-04T17:12:20.839Z,32.85
2023-05-04T17:15:27.524Z,32.95
2023-05-04T17:18:40.250Z,33.70
2023-05-04T17:25:19.691Z,33.33
2023-05-04T17:28:26.755Z,34.25
2023-05-04T17:31:38.875Z,34.55
2023-05-04T17:34:50.563Z,36.47
2023-05-04T17:38:06.908Z,34.22
2023-05-04T17:41:16.201Z,34.58
2023-05-04T17:44:26.616Z,34.55
2023-05-04T17:47:35.451Z,31.65
2023-05-04T17:50:54.056Z,29.30
2023-05-04T17:54:00.637Z,31.60
2023-05-04T17:57:27.995Z,31.35
2023-05-04T18:00:54.259Z,30.80
2023-05-04T18:04:08.989Z,31.23
2023-05-04T18:07:22.761Z,30.98
2023-05-04T18:10:35.485Z,32.95
2023-05-04T18:13:43.135Z,33.40
2023-05-04T18:16:51.126Z,32.60
2023-05-04T18:20:00.006Z,34.38
2023-05-04T18:23:15.382Z,33.55
2023-05-04T18:26:25.919Z,35.13
2023-05-04T18:29:33.899Z,34.83
2023-05-04T18:32:42.033Z,36.63
2023-05-04T18:35:48.967Z,36.80
2023-05-04T18:39:00.722Z,37.20
2023-05-04T18:42:08.581Z,37.20
2023-05-04T18:45:18.572Z,40.63
2023-05-04T18:48:25.141Z,43.20
2023-05-04T18:51:30.122Z,44.00
2023-05-04T18:54:35.167Z,45.80
2023-05-04T18:57:39.851Z,46.22
2023-05-04T19:00:53.116Z,45.15
2023-05-04T19:03:57.881Z,46.30
2023-05-04T19:07:02.764Z,45.57
2023-05-04T19:10:08.578Z,46.67
2023-05-04T19:13:13.894Z,46.65
2023-05-04T19:16:19.396Z,44.97
2023-05-04T19:19:24.167Z,46.78
2023-05-04T19:22:28.618Z,45.03
2023-05-04T19:25:35.014Z,45.17
2023-05-04T19:28:45.026Z,45.83
2023-05-04T19:31:52.170Z,42.58
2023-05-04T19:34:57.023Z,42.40
2023-05-04T19:38:07.930Z,42.45
2023-05-04T19:41:12.439Z,43.80
2023-05-04T19:44:17.154Z,45.20
2023-05-04T19:47:21.789Z,43.50
2023-05-04T19:50:26.831Z,45.15
2023-05-04T19:53:34.544Z,44.43
2023-05-04T19:56:39.661Z,44.17
2023-05-04T19:59:47.443Z,44.25
2023-05-04T20:02:52.254Z,44.47
2023-05-04T20:05:57.321Z,49.97
2023-05-04T20:09:02.194Z,44.80
2023-05-04T20:12:07.382Z,44.23
2023-05-04T20:15:15.019Z,46.90
2023-05-04T20:18:20.998Z,44.45
2023-05-04T20:21:25.884Z,45.88
2023-05-04T20:24:38.857Z,46.87
2023-05-04T20:27:44.549Z,46.03
2023-05-04T20:30:51.448Z,48.95
2023-05-04T20:33:56.084Z,48.30
2023-05-04T20:37:00.154Z,48.63
2023-05-04T20:40:05.249Z,50.35
2023-05-04T20:43:10.445Z,46.42
2023-05-04T20:46:17.797Z,47.53
2023-05-04T20:49:25.868Z,46.53
2023-05-04T20:52:32.007Z,48.40
2023-05-04T20:55:41.295Z,46.20
2023-05-04T20:58:49.033Z,48.08
2023-05-04T21:01:54.143Z,46.60
2023-05-04T21:05:01.350Z,48.03
2023-05-04T21:08:07.845Z,47.80
2023-05-04T21:11:14.801Z,47.25
2023-05-04T21:14:20.033Z,46.78
2023-05-04T21:17:28.157Z,45.25
2023-05-04T21:20:35.629Z,45.95
2023-05-04T21:23:40.605Z,45.08
2023-05-04T21:26:46.705Z,47.13
2023-05-04T21:29:54.012Z,47.13
2023-05-04T21:33:01.904Z,48.28
2023-05-04T21:36:30.748Z,48.10
2023-05-04T21:39:35.739Z,48.28
2023-05-04T21:42:40.747Z,50.38
2023-05-04T21:45:49.946Z,51.70
2023-05-04T21:48:57.775Z,53.00
2023-05-04T21:52:04.324Z,52.17
2023-05-04T21:55:09.153Z,46.47
2023-05-04T21:58:13.468Z,45.95
2023-05-04T22:01:51.592Z,47.67
2023-05-04T22:04:56.520Z,51.47
2023-05-04T22:08:01.773Z,71.83
2023-05-04T22:11:07.181Z,73.60
2023-05-04T22:17:16.661Z,71.90
2023-05-04T22:20:24.330Z,56.50
2023-05-04T22:23:31.464Z,45.28
2023-05-04T22:26:36.458Z,47.08
2023-05-04T22:29:43.427Z,47.63
2023-05-04T22:32:48.319Z,48.40
2023-05-04T22:35:59.187Z,49.40
2023-05-04T22:39:33.382Z,51.55
2023-05-04T22:42:37.947Z,52.53
2023-05-04T22:45:44.587Z,53.50
2023-05-04T22:48:51.422Z,50.83
2023-05-04T22:51:58.225Z,54.45
2023-05-04T22:55:02.896Z,56.28
2023-05-04T22:58:07.294Z,55.67
2023-05-04T23:01:12.528Z,58.28
2023-05-04T23:04:17.337Z,100.10
2023-05-04T23:07:22.039Z,60.40
2023-05-04T23:10:26.024Z,55.65
2023-05-04T23:13:33.613Z,56.72
2023-05-04T23:16:38.229Z,54.13
2023-05-04T23:19:42.488Z,53.72
2023-05-04T23:22:47.260Z,53.00
2023-05-04T23:25:52.411Z,55.73
2023-05-04T23:28:59.050Z,56.70
2023-05-04T23:32:03.515Z,53.15
2023-05-04T23:35:10.379Z,56.88
2023-05-04T23:38:16.157Z,54.10
2023-05-04T23:41:20.952Z,52.50
2023-05-04T23:44:24.933Z,50.97
2023-05-04T23:47:28.972Z,61.38
2023-05-04T23:50:33.433Z,51.75
2023-05-04T23:53:42.789Z,51.38
2023-05-04T23:56:49.584Z,50.95
2023-05-04T23:59:54.383Z,49.83
